createdAt,value
2023-04-09T00:00:03.837Z,93123.00
2023-04-09T00:01:03.943Z,93121.00
2023-04-09T00:02:04.065Z,93121.00
2023-04-09T00:03:04.172Z,93121.00
2023-04-09T00:04:04.288Z,93119.00
2023-04-09T00:05:04.338Z,93119.00
2023-04-09T00:06:04.440Z,93119.00
2023-04-09T00:07:04.543Z,93121.00
2023-04-09T00:08:04.640Z,93121.00
2023-04-09T00:09:04.742Z,93121.00
2023-04-09T00:10:04.833Z,93119.00
2023-04-09T00:11:04.958Z,93112.00
2023-04-09T00:12:05.024Z,93112.00
2023-04-09T00:13:05.124Z,93110.00
2023-04-09T00:14:05.240Z,93110.00
2023-04-09T00:15:05.319Z,93110.00
2023-04-09T00:16:05.465Z,93108.00
2023-04-09T00:17:05.523Z,93110.00
2023-04-09T00:18:05.730Z,93110.00
2023-04-09T00:19:05.724Z,93108.00
2023-04-09T00:20:05.813Z,93108.00
2023-04-09T00:21:05.907Z,93110.00
2023-04-09T00:22:06.007Z,93110.00
2023-04-09T00:23:06.109Z,93108.00
2023-04-09T00:24:06.210Z,93106.00
2023-04-09T00:25:06.302Z,93106.00
2023-04-09T00:26:06.424Z,93108.00
2023-04-09T00:27:06.493Z,93106.00
2023-04-09T00:28:06.593Z,93104.00
2023-04-09T00:29:06.693Z,93104.00
2023-04-09T00:30:06.782Z,93104.00
2023-04-09T00:31:06.869Z,93102.00
2023-04-09T00:32:07.011Z,93104.00
2023-04-09T00:33:07.105Z,93104.00
2023-04-09T00:34:07.168Z,93102.00
2023-04-09T00:35:07.284Z,93102.00
2023-04-09T00:36:07.388Z,93102.00
2023-04-09T00:37:07.444Z,93102.00
2023-04-09T00:38:07.548Z,93102.00
2023-04-09T00:39:07.651Z,93106.00
2023-04-09T00:40:07.737Z,93102.00
2023-04-09T00:41:07.842Z,93102.00
2023-04-09T00:42:07.920Z,93102.00
2023-04-09T00:43:08.022Z,93102.00
2023-04-09T00:44:08.140Z,93104.00
2023-04-09T00:45:08.230Z,93102.00
2023-04-09T00:46:08.383Z,93104.00
2023-04-09T00:47:08.429Z,93102.00
2023-04-09T00:48:08.541Z,93102.00
2023-04-09T00:49:08.623Z,93100.00
2023-04-09T00:50:08.745Z,93102.00
2023-04-09T00:51:08.835Z,93100.00
2023-04-09T00:52:08.940Z,93102.00
2023-04-09T00:53:09.026Z,93100.00
2023-04-09T00:54:09.128Z,93100.00
2023-04-09T00:55:09.224Z,93104.00
2023-04-09T00:56:09.320Z,93104.00
2023-04-09T00:57:09.431Z,93104.00
2023-04-09T00:58:09.522Z,93102.00
2023-04-09T00:59:09.606Z,93102.00
2023-04-09T01:00:09.721Z,93102.00
2023-04-09T01:01:09.812Z,93104.00
2023-04-09T01:02:09.933Z,93102.00
2023-04-09T01:03:10.019Z,93104.00
2023-04-09T01:04:10.097Z,93104.00
2023-04-09T01:05:10.189Z,93104.00
2023-04-09T01:06:10.289Z,93102.00
2023-04-09T01:07:10.381Z,93106.00
2023-04-09T01:08:10.494Z,93104.00
2023-04-09T01:09:10.574Z,93102.00
2023-04-09T01:10:10.684Z,93104.00
2023-04-09T01:11:10.758Z,93104.00
2023-04-09T01:12:10.850Z,93102.00
2023-04-09T01:13:10.959Z,93102.00
2023-04-09T01:14:11.044Z,93106.00
2023-04-09T01:15:11.157Z,93104.00
2023-04-09T01:16:11.269Z,93102.00
2023-04-09T01:17:11.323Z,93102.00
2023-04-09T01:18:11.417Z,93100.00
2023-04-09T01:19:11.528Z,93100.00
2023-04-09T01:20:11.626Z,93102.00
2023-04-09T01:21:11.751Z,93098.00
2023-04-09T01:22:11.799Z,93100.00
2023-04-09T01:23:11.896Z,93100.00
2023-04-09T01:24:11.989Z,93100.00
2023-04-09T01:25:12.090Z,93098.00
2023-04-09T01:26:12.193Z,93100.00
2023-04-09T01:27:12.291Z,93100.00
2023-04-09T01:28:12.375Z,93102.00
2023-04-09T01:29:12.460Z,93102.00
2023-04-09T01:30:12.573Z,93102.00
2023-04-09T01:31:12.702Z,93102.00
2023-04-09T01:32:12.742Z,93102.00
2023-04-09T01:33:12.844Z,93100.00
2023-04-09T01:34:12.933Z,93102.00
2023-04-09T01:35:13.039Z,93102.00
2023-04-09T01:36:13.180Z,93100.00
2023-04-09T01:37:13.230Z,93100.00
2023-04-09T01:38:13.320Z,93100.00
2023-04-09T01:39:13.422Z,93100.00
2023-04-09T01:40:13.517Z,93100.00
2023-04-09T01:41:13.601Z,93098.00
2023-04-09T01:42:13.715Z,93100.00
2023-04-09T01:43:13.816Z,93102.00
2023-04-09T01:44:13.904Z,93102.00
2023-04-09T01:45:14.002Z,93098.00
2023-04-09T01:46:14.120Z,93098.00
2023-04-09T01:47:14.201Z,93098.00
2023-04-09T01:48:14.295Z,93098.00
2023-04-09T01:49:14.395Z,93098.00
2023-04-09T01:50:14.502Z,93100.00
2023-04-09T01:51:14.591Z,93100.00
2023-04-09T01:52:14.693Z,93100.00
2023-04-09T01:53:14.800Z,93100.00
2023-04-09T01:54:14.887Z,93100.00
2023-04-09T01:55:14.989Z,93100.00
2023-04-09T01:56:15.101Z,93098.00
2023-04-09T01:57:15.186Z,93100.00
2023-04-09T01:58:15.280Z,93100.00
2023-04-09T01:59:15.379Z,93100.00
2023-04-09T02:00:15.473Z,93102.00
2023-04-09T02:01:15.587Z,93100.00
2023-04-09T02:02:15.740Z,93104.00
2023-04-09T02:03:15.808Z,93098.00
2023-04-09T02:04:15.870Z,93102.00
2023-04-09T02:05:15.975Z,93100.00
2023-04-09T02:06:16.076Z,93104.00
2023-04-09T02:07:16.162Z,93102.00
2023-04-09T02:08:16.268Z,93102.00
2023-04-09T02:09:16.370Z,93104.00
2023-04-09T02:10:16.479Z,93106.00
2023-04-09T02:11:16.608Z,93108.00
2023-04-09T02:12:16.690Z,93110.00
2023-04-09T02:13:16.782Z,93108.00
2023-04-09T02:14:16.887Z,93112.00
2023-04-09T02:15:16.980Z,93110.00
2023-04-09T02:16:17.175Z,93106.00
2023-04-09T02:17:17.196Z,93108.00
2023-04-09T02:18:17.278Z,93106.00
2023-04-09T02:19:17.377Z,93106.00
2023-04-09T02:20:17.526Z,93104.00
2023-04-09T02:21:17.566Z,93108.00
2023-04-09T02:22:17.737Z,93104.00
2023-04-09T02:23:17.759Z,93108.00
2023-04-09T02:24:17.858Z,93106.00
2023-04-09T02:25:17.953Z,93102.00
2023-04-09T02:26:18.053Z,93106.00
2023-04-09T02:27:18.142Z,93102.00
2023-04-09T02:28:18.224Z,93104.00
2023-04-09T02:29:18.331Z,93104.00
2023-04-09T02:30:18.418Z,93106.00
2023-04-09T02:31:18.599Z,93106.00
2023-04-09T02:32:18.616Z,93106.00
2023-04-09T02:33:18.705Z,93110.00
2023-04-09T02:34:18.807Z,93110.00
2023-04-09T02:35:18.892Z,93108.00
2023-04-09T02:36:18.992Z,93110.00
2023-04-09T02:37:19.080Z,93108.00
2023-04-09T02:38:19.170Z,93110.00
2023-04-09T02:39:19.267Z,93110.00
2023-04-09T02:40:19.352Z,93112.00
2023-04-09T02:41:19.456Z,93112.00
2023-04-09T02:42:19.539Z,93112.00
2023-04-09T02:43:19.634Z,93112.00
2023-04-09T02:44:19.752Z,93112.00
2023-04-09T02:45:19.830Z,93119.00
2023-04-09T02:46:19.967Z,93119.00
2023-04-09T02:47:20.048Z,93110.00
2023-04-09T02:48:20.122Z,93110.00
2023-04-09T02:49:20.209Z,93112.00
2023-04-09T02:50:20.338Z,93110.00
2023-04-09T02:51:20.396Z,93110.00
2023-04-09T02:52:20.494Z,93108.00
2023-04-09T02:53:20.584Z,93106.00
2023-04-09T02:54:20.691Z,93108.00
2023-04-09T02:55:20.783Z,93106.00
2023-04-09T02:56:20.899Z,93106.00
2023-04-09T02:57:20.978Z,93104.00
2023-04-09T02:58:21.091Z,93104.00
2023-04-09T02:59:21.181Z,93104.00
2023-04-09T03:00:21.273Z,93104.00
2023-04-09T03:01:21.378Z,93102.00
2023-04-09T03:02:21.685Z,93104.00
2023-04-09T03:03:21.666Z,93102.00
2023-04-09T03:04:21.725Z,93102.00
2023-04-09T03:05:21.757Z,93100.00
2023-04-09T03:06:21.860Z,93098.00
2023-04-09T03:07:21.958Z,93100.00
2023-04-09T03:08:22.057Z,93100.00
2023-04-09T03:09:22.139Z,93102.00
2023-04-09T03:10:22.239Z,93100.00
2023-04-09T03:11:22.349Z,93098.00
2023-04-09T03:12:22.435Z,93102.00
2023-04-09T03:13:22.521Z,93102.00
2023-04-09T03:14:22.625Z,93100.00
2023-04-09T03:15:22.730Z,93098.00
2023-04-09T03:16:22.869Z,93098.00
2023-04-09T03:17:22.940Z,93100.00
2023-04-09T03:18:23.020Z,93098.00
2023-04-09T03:19:23.121Z,93100.00
2023-04-09T03:20:23.207Z,93094.00
2023-04-09T03:21:23.313Z,93096.00
2023-04-09T03:22:23.426Z,93096.00
2023-04-09T03:23:23.506Z,93094.00
2023-04-09T03:24:23.603Z,93096.00
2023-04-09T03:25:23.700Z,93094.00
2023-04-09T03:26:23.803Z,93094.00
2023-04-09T03:27:23.934Z,93094.00
2023-04-09T03:28:23.974Z,93096.00
2023-04-09T03:29:24.085Z,93096.00
2023-04-09T03:30:24.171Z,93094.00
2023-04-09T03:31:24.332Z,93096.00
2023-04-09T03:32:24.431Z,93096.00
2023-04-09T03:33:24.466Z,93096.00
2023-04-09T03:34:24.578Z,93098.00
2023-04-09T03:35:24.727Z,93100.00
2023-04-09T03:36:24.771Z,93098.00
2023-04-09T03:37:24.875Z,93100.00
2023-04-09T03:38:25.040Z,93098.00
2023-04-09T03:39:25.151Z,93098.00
2023-04-09T03:40:25.161Z,93098.00
2023-04-09T03:41:25.254Z,93098.00
2023-04-09T03:42:25.359Z,93098.00
2023-04-09T03:43:25.443Z,93102.00
2023-04-09T03:44:25.540Z,93102.00
2023-04-09T03:45:25.639Z,93102.00
2023-04-09T03:46:25.739Z,93100.00
2023-04-09T03:47:25.841Z,93102.00
2023-04-09T03:48:25.906Z,93100.00
2023-04-09T03:49:26.016Z,93102.00
2023-04-09T03:50:26.102Z,93102.00
2023-04-09T03:51:26.211Z,93102.00
2023-04-09T03:52:26.293Z,93102.00
2023-04-09T03:53:26.390Z,93100.00
2023-04-09T03:54:26.484Z,93102.00
2023-04-09T03:55:26.558Z,93102.00
2023-04-09T03:56:26.661Z,93102.00
2023-04-09T03:57:26.754Z,93102.00
2023-04-09T03:58:26.864Z,93104.00
2023-04-09T03:59:26.952Z,93104.00
2023-04-09T04:00:27.040Z,93104.00
2023-04-09T04:01:27.129Z,93104.00
2023-04-09T04:02:27.580Z,93104.00
2023-04-09T04:03:27.434Z,93104.00
2023-04-09T04:04:27.478Z,93106.00
2023-04-09T04:05:27.525Z,93106.00
2023-04-09T04:06:27.621Z,93104.00
2023-04-09T04:07:27.718Z,93106.00
2023-04-09T04:08:27.818Z,93106.00
2023-04-09T04:09:27.914Z,93102.00
2023-04-09T04:10:27.995Z,93102.00
2023-04-09T04:11:28.112Z,93102.00
2023-04-09T04:12:28.197Z,93102.00
2023-04-09T04:13:28.379Z,93108.00
2023-04-09T04:14:28.397Z,93106.00
2023-04-09T04:15:28.498Z,93104.00
2023-04-09T04:16:28.637Z,93106.00
2023-04-09T04:17:28.719Z,93106.00
2023-04-09T04:18:28.791Z,93108.00
2023-04-09T04:19:28.902Z,93106.00
2023-04-09T04:20:28.992Z,93108.00
2023-04-09T04:21:29.100Z,93108.00
2023-04-09T04:22:29.189Z,93110.00
2023-04-09T04:23:29.299Z,93112.00
2023-04-09T04:24:29.394Z,93108.00
2023-04-09T04:25:29.524Z,93110.00
2023-04-09T04:26:29.601Z,93112.00
2023-04-09T04:27:29.688Z,93112.00
2023-04-09T04:28:29.790Z,93110.00
2023-04-09T04:29:29.895Z,93110.00
2023-04-09T04:30:29.986Z,93108.00
2023-04-09T04:31:30.190Z,93110.00
2023-04-09T04:32:30.207Z,93108.00
2023-04-09T04:33:30.297Z,93112.00
2023-04-09T04:34:30.401Z,93110.00
2023-04-09T04:35:30.540Z,93112.00
2023-04-09T04:36:30.604Z,93112.00
2023-04-09T04:37:30.703Z,93119.00
2023-04-09T04:38:30.803Z,93119.00
2023-04-09T04:39:30.898Z,93119.00
2023-04-09T04:40:30.996Z,93119.00
2023-04-09T04:41:31.101Z,93121.00
2023-04-09T04:42:31.199Z,93121.00
2023-04-09T04:43:31.295Z,93125.00
2023-04-09T04:44:31.407Z,93123.00
2023-04-09T04:45:31.542Z,93125.00
2023-04-09T04:46:31.615Z,93125.00
2023-04-09T04:47:31.728Z,93127.00
2023-04-09T04:48:31.828Z,93127.00
2023-04-09T04:49:31.926Z,93127.00
2023-04-09T04:50:32.021Z,93125.00
2023-04-09T04:51:32.124Z,93127.00
2023-04-09T04:52:32.223Z,93127.00
2023-04-09T04:53:32.329Z,93131.00
2023-04-09T04:54:32.428Z,93131.00
2023-04-09T04:55:32.524Z,93131.00
2023-04-09T04:56:32.625Z,93131.00
2023-04-09T04:57:32.720Z,93133.00
2023-04-09T04:58:32.814Z,93133.00
2023-04-09T04:59:32.918Z,93135.00
2023-04-09T05:00:33.002Z,93133.00
2023-04-09T05:01:33.179Z,93133.00
2023-04-09T05:02:33.318Z,93137.00
2023-04-09T05:04:33.399Z,93133.00
2023-04-09T05:05:33.508Z,93133.00
2023-04-09T05:06:33.608Z,93133.00
2023-04-09T05:07:33.704Z,93133.00
2023-04-09T05:08:33.799Z,93133.00
2023-04-09T05:09:33.892Z,93135.00
2023-04-09T05:10:33.992Z,93135.00
2023-04-09T05:11:34.075Z,93139.00
2023-04-09T05:12:34.175Z,93139.00
2023-04-09T05:13:34.281Z,93139.00
2023-04-09T05:14:34.361Z,93137.00
2023-04-09T05:15:34.459Z,93143.00
2023-04-09T05:16:34.559Z,93139.00
2023-04-09T05:17:34.656Z,93139.00
2023-04-09T05:18:34.736Z,93139.00
2023-04-09T05:19:34.830Z,93141.00
2023-04-09T05:20:34.937Z,93141.00
2023-04-09T05:21:35.020Z,93141.00
2023-04-09T05:22:35.129Z,93141.00
2023-04-09T05:23:35.216Z,93141.00
2023-04-09T05:24:35.313Z,93141.00
2023-04-09T05:25:35.422Z,93139.00
2023-04-09T05:26:35.491Z,93145.00
2023-04-09T05:27:35.573Z,93141.00
2023-04-09T05:28:35.674Z,93147.00
2023-04-09T05:29:35.748Z,93147.00
2023-04-09T05:30:35.853Z,93141.00
2023-04-09T05:31:35.916Z,93147.00
2023-04-09T05:32:36.047Z,93147.00
2023-04-09T05:33:36.850Z,93145.00
2023-04-09T05:34:36.195Z,93149.00
2023-04-09T05:35:36.294Z,93149.00
2023-04-09T05:36:36.368Z,93149.00
2023-04-09T05:37:36.468Z,93151.00
2023-04-09T05:38:36.552Z,93151.00
2023-04-09T05:39:36.645Z,93153.00
2023-04-09T05:40:36.738Z,93155.00
2023-04-09T05:41:36.818Z,93155.00
2023-04-09T05:42:36.906Z,93155.00
2023-04-09T05:43:37.100Z,93155.00
2023-04-09T05:44:37.084Z,93157.00
2023-04-09T05:45:37.163Z,93159.00
2023-04-09T05:46:37.256Z,93159.00
2023-04-09T05:47:37.418Z,93159.00
2023-04-09T05:48:37.417Z,93163.00
2023-04-09T05:49:37.521Z,93161.00
2023-04-09T05:50:43.895Z,93165.00
2023-04-09T05:51:38.626Z,93163.00
2023-04-09T05:52:37.663Z,93165.00
2023-04-09T05:53:37.703Z,93168.00
2023-04-09T05:54:37.748Z,93163.00
2023-04-09T05:55:37.781Z,93166.00
2023-04-09T05:56:37.837Z,93168.00
2023-04-09T05:57:37.928Z,93165.00
2023-04-09T05:58:37.910Z,93166.00
2023-04-09T05:59:37.948Z,93166.00
2023-04-09T06:00:37.989Z,93165.00
2023-04-09T06:01:38.036Z,93163.00
2023-04-09T06:02:38.139Z,93166.00
2023-04-09T06:03:38.220Z,93166.00
2023-04-09T06:04:38.280Z,93166.00
2023-04-09T06:05:38.334Z,93166.00
2023-04-09T06:06:38.395Z,93166.00
2023-04-09T06:07:38.491Z,93166.00
2023-04-09T06:08:38.576Z,93168.00
2023-04-09T06:09:38.648Z,93166.00
2023-04-09T06:10:39.906Z,93165.00
2023-04-09T06:11:38.848Z,93166.00
2023-04-09T06:12:38.879Z,93166.00
2023-04-09T06:13:38.950Z,93165.00
2023-04-09T06:14:39.023Z,93166.00
2023-04-09T06:15:39.236Z,93166.00
2023-04-09T06:16:39.184Z,93170.00
2023-04-09T06:17:39.270Z,93168.00
2023-04-09T06:18:39.325Z,93172.00
2023-04-09T06:19:39.400Z,93170.00
2023-04-09T06:20:39.462Z,93168.00
2023-04-09T06:21:39.546Z,93170.00
2023-04-09T06:22:39.604Z,93170.00
2023-04-09T06:23:39.683Z,93170.00
2023-04-09T06:24:39.745Z,93168.00
2023-04-09T06:25:39.804Z,93172.00
2023-04-09T06:26:39.874Z,93174.00
2023-04-09T06:27:39.964Z,93174.00
2023-04-09T06:28:40.021Z,93174.00
2023-04-09T06:29:40.076Z,93174.00
2023-04-09T06:30:40.141Z,93176.00
2023-04-09T06:31:40.248Z,93174.00
2023-04-09T06:32:50.858Z,93176.00
2023-04-09T06:33:41.307Z,93176.00
2023-04-09T06:34:40.343Z,93176.00
2023-04-09T06:35:40.362Z,93178.00
2023-04-09T06:36:40.490Z,93176.00
2023-04-09T06:37:40.463Z,93178.00
2023-04-09T06:38:40.488Z,93178.00
2023-04-09T06:39:44.660Z,93180.00
2023-04-09T06:40:41.551Z,93180.00
2023-04-09T06:41:40.583Z,93178.00
2023-04-09T06:42:40.613Z,93180.00
2023-04-09T06:43:40.643Z,93178.00
2023-04-09T06:44:40.692Z,93180.00
2023-04-09T06:45:41.174Z,93178.00
2023-04-09T06:46:40.769Z,93182.00
2023-04-09T06:47:40.792Z,93182.00
2023-04-09T06:48:40.807Z,93182.00
2023-04-09T06:49:40.843Z,93180.00
2023-04-09T06:50:40.878Z,93184.00
2023-04-09T06:51:40.907Z,93186.00
2023-04-09T06:52:40.945Z,93184.00
2023-04-09T06:53:41.029Z,93182.00
2023-04-09T06:54:41.013Z,93186.00
2023-04-09T06:55:41.046Z,93186.00
2023-04-09T06:56:41.096Z,93186.00
2023-04-09T06:57:41.113Z,93186.00
2023-04-09T06:58:41.137Z,93186.00
2023-04-09T06:59:41.179Z,93188.00
2023-04-09T07:00:41.203Z,93188.00
2023-04-09T07:01:41.267Z,93190.00
2023-04-09T07:02:41.512Z,93186.00
2023-04-09T07:03:41.756Z,93190.00
2023-04-09T07:04:41.489Z,93190.00
2023-04-09T07:05:41.527Z,93192.00
2023-04-09T07:06:41.586Z,93190.00
2023-04-09T07:07:41.640Z,93188.00
2023-04-09T07:08:41.696Z,93190.00
2023-04-09T07:09:41.739Z,93194.00
2023-04-09T07:10:41.800Z,93192.00
2023-04-09T07:11:41.856Z,93190.00
2023-04-09T07:12:41.901Z,93190.00
2023-04-09T07:13:41.968Z,93192.00
2023-04-09T07:14:42.012Z,93192.00
2023-04-09T07:15:42.660Z,93190.00
2023-04-09T07:16:42.125Z,93190.00
2023-04-09T07:17:42.199Z,93194.00
2023-04-09T07:18:42.225Z,93192.00
2023-04-09T07:19:42.265Z,93192.00
2023-04-09T07:20:42.314Z,93192.00
2023-04-09T07:21:42.367Z,93190.00
2023-04-09T07:22:42.418Z,93188.00
2023-04-09T07:23:42.471Z,93186.00
2023-04-09T07:24:42.521Z,93192.00
2023-04-09T07:25:42.608Z,93188.00
2023-04-09T07:26:42.607Z,93192.00
2023-04-09T07:27:42.656Z,93192.00
2023-04-09T07:28:42.715Z,93196.00
2023-04-09T07:29:42.761Z,93194.00
2023-04-09T07:30:43.372Z,93192.00
2023-04-09T07:31:42.889Z,93192.00
2023-04-09T07:32:42.938Z,93190.00
2023-04-09T07:33:42.947Z,93192.00
2023-04-09T07:34:43.014Z,93192.00
2023-04-09T07:35:43.077Z,93190.00
2023-04-09T07:36:43.136Z,93192.00
2023-04-09T07:37:43.278Z,93192.00
2023-04-09T07:38:43.241Z,93190.00
2023-04-09T07:39:43.274Z,93190.00
2023-04-09T07:40:43.324Z,93190.00
2023-04-09T07:41:43.363Z,93190.00
2023-04-09T07:42:43.402Z,93190.00
2023-04-09T07:43:43.444Z,93194.00
2023-04-09T07:44:43.496Z,93194.00
2023-04-09T07:45:43.544Z,93194.00
2023-04-09T07:46:43.635Z,93192.00
2023-04-09T07:47:43.655Z,93196.00
2023-04-09T07:48:43.689Z,93194.00
2023-04-09T07:49:43.726Z,93194.00
2023-04-09T07:50:43.775Z,93192.00
2023-04-09T07:51:43.814Z,93192.00
2023-04-09T07:52:43.862Z,93192.00
2023-04-09T07:53:43.902Z,93194.00
2023-04-09T07:54:44.017Z,93194.00
2023-04-09T07:55:44.037Z,93194.00
2023-04-09T07:56:44.066Z,93194.00
2023-04-09T07:57:44.081Z,93196.00
2023-04-09T07:58:44.128Z,93194.00
2023-04-09T07:59:44.203Z,93194.00
2023-04-09T08:00:44.260Z,93194.00
2023-04-09T08:01:44.349Z,93194.00
2023-04-09T08:02:44.670Z,93196.00
2023-04-09T08:03:44.538Z,93192.00
2023-04-09T08:04:44.521Z,93192.00
2023-04-09T08:05:44.409Z,93190.00
2023-04-09T08:06:44.451Z,93184.00
2023-04-09T08:07:44.488Z,93186.00
2023-04-09T08:08:44.533Z,93186.00
2023-04-09T08:09:44.560Z,93186.00
2023-04-09T08:10:44.601Z,93186.00
2023-04-09T08:11:44.632Z,93184.00
2023-04-09T08:12:44.668Z,93186.00
2023-04-09T08:13:44.697Z,93186.00
2023-04-09T08:14:44.716Z,93186.00
2023-04-09T08:15:44.862Z,93188.00
2023-04-09T08:16:44.983Z,93184.00
2023-04-09T08:17:44.945Z,93188.00
2023-04-09T08:18:44.961Z,93188.00
2023-04-09T08:19:44.990Z,93188.00
2023-04-09T08:20:45.429Z,93188.00
2023-04-09T08:21:45.060Z,93190.00
2023-04-09T08:22:45.090Z,93190.00
2023-04-09T08:23:45.129Z,93188.00
2023-04-09T08:24:45.158Z,93194.00
2023-04-09T08:25:45.200Z,93188.00
2023-04-09T08:26:45.245Z,93188.00
2023-04-09T08:27:45.284Z,93188.00
2023-04-09T08:28:45.324Z,93188.00
2023-04-09T08:29:45.363Z,93192.00
2023-04-09T08:30:45.394Z,93190.00
2023-04-09T08:31:45.458Z,93190.00
2023-04-09T08:32:45.487Z,93190.00
2023-04-09T08:33:45.515Z,93194.00
2023-04-09T08:34:45.554Z,93190.00
2023-04-09T08:35:45.597Z,93194.00
2023-04-09T08:36:45.715Z,93188.00
2023-04-09T08:37:45.651Z,93190.00
2023-04-09T08:38:45.681Z,93190.00
2023-04-09T08:39:45.720Z,93190.00
2023-04-09T08:40:45.759Z,93190.00
2023-04-09T08:41:45.799Z,93192.00
2023-04-09T08:42:45.857Z,93194.00
2023-04-09T08:43:57.002Z,93188.00
2023-04-09T08:44:46.877Z,93186.00
2023-04-09T08:45:45.928Z,93188.00
2023-04-09T08:46:45.926Z,93188.00
2023-04-09T08:47:45.985Z,93190.00
2023-04-09T08:48:45.983Z,93188.00
2023-04-09T08:49:46.088Z,93188.00
2023-04-09T08:50:46.219Z,93186.00
2023-04-09T08:51:46.263Z,93192.00
2023-04-09T08:52:46.279Z,93194.00
2023-04-09T08:53:46.307Z,93194.00
2023-04-09T08:54:46.349Z,93192.00
2023-04-09T08:55:46.364Z,93192.00
2023-04-09T08:56:46.498Z,93190.00
2023-04-09T08:57:46.517Z,93194.00
2023-04-09T08:58:46.556Z,93194.00
2023-04-09T08:59:46.584Z,93190.00
2023-04-09T09:00:46.610Z,93192.00
2023-04-09T09:01:46.739Z,93190.00
2023-04-09T09:02:46.880Z,93192.00
2023-04-09T09:03:46.846Z,93190.00
2023-04-09T09:04:46.833Z,93194.00
2023-04-09T09:05:46.867Z,93192.00
2023-04-09T09:06:46.892Z,93190.00
2023-04-09T09:07:46.983Z,93196.00
2023-04-09T09:08:47.122Z,93194.00
2023-04-09T09:09:47.141Z,93192.00
2023-04-09T09:10:47.178Z,93190.00
2023-04-09T09:11:47.222Z,93186.00
2023-04-09T09:12:47.262Z,93186.00
2023-04-09T09:13:47.283Z,93192.00
2023-04-09T09:14:47.392Z,93192.00
2023-04-09T09:15:47.523Z,93188.00
2023-04-09T09:16:47.696Z,93186.00
2023-04-09T09:17:47.827Z,93184.00
2023-04-09T09:18:47.824Z,93184.00
2023-04-09T09:19:47.869Z,93186.00
2023-04-09T09:20:47.912Z,93180.00
2023-04-09T09:21:47.940Z,93182.00
2023-04-09T09:22:49.099Z,93182.00
2023-04-09T09:23:49.019Z,93180.00
2023-04-09T09:24:49.772Z,93184.00
2023-04-09T09:25:48.112Z,93178.00
2023-04-09T09:26:48.154Z,93182.00
2023-04-09T09:27:48.245Z,93180.00
2023-04-09T09:28:48.291Z,93180.00
2023-04-09T09:29:48.312Z,93178.00
2023-04-09T09:30:49.391Z,93182.00
2023-04-09T09:31:48.350Z,93176.00
2023-04-09T09:32:48.441Z,93178.00
2023-04-09T09:33:48.502Z,93176.00
2023-04-09T09:34:48.513Z,93180.00
2023-04-09T09:35:48.604Z,93172.00
2023-04-09T09:36:48.573Z,93174.00
2023-04-09T09:37:48.609Z,93174.00
2023-04-09T09:38:48.624Z,93172.00
2023-04-09T09:39:48.747Z,93170.00
2023-04-09T09:40:48.867Z,93176.00
2023-04-09T09:41:48.989Z,93174.00
2023-04-09T09:42:49.022Z,93174.00
2023-04-09T09:43:49.052Z,93172.00
2023-04-09T09:44:49.094Z,93170.00
2023-04-09T09:45:49.171Z,93170.00
2023-04-09T09:46:49.214Z,93172.00
2023-04-09T09:47:49.332Z,93168.00
2023-04-09T09:48:49.393Z,93166.00
2023-04-09T09:49:49.392Z,93168.00
2023-04-09T09:50:49.455Z,93168.00
2023-04-09T09:51:49.449Z,93168.00
2023-04-09T09:52:49.461Z,93166.00
2023-04-09T09:53:49.905Z,93166.00
2023-04-09T09:54:49.502Z,93165.00
2023-04-09T09:55:49.533Z,93170.00
2023-04-09T09:56:49.586Z,93168.00
2023-04-09T09:57:49.620Z,93165.00
2023-04-09T09:58:49.812Z,93168.00
2023-04-09T09:59:49.717Z,93165.00
2023-04-09T10:00:49.752Z,93163.00
2023-04-09T10:01:49.812Z,93165.00
2023-04-09T10:02:49.867Z,93168.00
2023-04-09T10:03:49.824Z,93165.00
2023-04-09T10:04:49.938Z,93161.00
2023-04-09T10:05:49.877Z,93157.00
2023-04-09T10:06:51.494Z,93159.00
2023-04-09T10:07:49.924Z,93159.00
2023-04-09T10:08:50.039Z,93153.00
2023-04-09T10:09:49.969Z,93157.00
2023-04-09T10:10:50.008Z,93157.00
2023-04-09T10:11:50.034Z,93155.00
2023-04-09T10:12:50.053Z,93155.00
2023-04-09T10:13:50.159Z,93155.00
2023-04-09T10:14:50.088Z,93153.00
2023-04-09T10:15:50.144Z,93149.00
2023-04-09T10:16:50.150Z,93149.00
2023-04-09T10:17:50.232Z,93147.00
2023-04-09T10:18:50.377Z,93147.00
2023-04-09T10:19:50.202Z,93147.00
2023-04-09T10:20:50.233Z,93145.00
2023-04-09T10:21:50.244Z,93147.00
2023-04-09T10:22:50.263Z,93143.00
2023-04-09T10:23:50.290Z,93143.00
2023-04-09T10:24:50.319Z,93143.00
2023-04-09T10:25:50.342Z,93143.00
2023-04-09T10:26:50.370Z,93139.00
2023-04-09T10:27:50.394Z,93139.00
2023-04-09T10:28:50.592Z,93137.00
2023-04-09T10:29:50.444Z,93139.00
2023-04-09T10:30:50.477Z,93139.00
2023-04-09T10:31:50.483Z,93135.00
2023-04-09T10:32:50.548Z,93133.00
2023-04-09T10:33:50.561Z,93135.00
2023-04-09T10:34:50.607Z,93135.00
2023-04-09T10:35:50.569Z,93131.00
2023-04-09T10:36:50.582Z,93131.00
2023-04-09T10:37:50.606Z,93133.00
2023-04-09T10:38:50.835Z,93129.00
2023-04-09T10:39:50.639Z,93131.00
2023-04-09T10:40:50.660Z,93129.00
2023-04-09T10:41:50.677Z,93131.00
2023-04-09T10:42:50.706Z,93129.00
2023-04-09T10:43:50.735Z,93129.00
2023-04-09T10:44:50.746Z,93127.00
2023-04-09T10:45:50.783Z,93127.00
2023-04-09T10:46:50.895Z,93127.00
2023-04-09T10:47:50.845Z,93127.00
2023-04-09T10:48:50.913Z,93127.00
2023-04-09T10:49:50.864Z,93125.00
2023-04-09T10:50:50.875Z,93127.00
2023-04-09T10:51:50.913Z,93125.00
2023-04-09T10:52:50.924Z,93121.00
2023-04-09T10:53:50.944Z,93125.00
2023-04-09T10:54:50.965Z,93127.00
2023-04-09T10:55:50.999Z,93123.00
2023-04-09T10:56:50.996Z,93125.00
2023-04-09T10:57:51.019Z,93125.00
2023-04-09T10:58:51.286Z,93123.00
2023-04-09T10:59:51.086Z,93121.00
2023-04-09T11:00:51.096Z,93125.00
2023-04-09T11:01:51.163Z,93125.00
2023-04-09T11:02:51.402Z,93121.00
2023-04-09T11:03:51.202Z,93119.00
2023-04-09T11:04:51.209Z,93112.00
2023-04-09T11:05:51.919Z,93112.00
2023-04-09T11:06:51.214Z,93108.00
2023-04-09T11:07:51.243Z,93108.00
2023-04-09T11:08:51.409Z,93110.00
2023-04-09T11:09:51.278Z,93106.00
2023-04-09T11:10:52.158Z,93106.00
2023-04-09T11:11:51.318Z,93104.00
2023-04-09T11:12:51.337Z,93104.00
2023-04-09T11:13:51.354Z,93104.00
2023-04-09T11:14:51.382Z,93104.00
2023-04-09T11:15:51.463Z,93104.00
2023-04-09T11:16:51.491Z,93106.00
2023-04-09T11:17:51.555Z,93102.00
2023-04-09T11:18:51.768Z,93104.00
2023-04-09T11:19:51.630Z,93102.00
2023-04-09T11:20:51.737Z,93104.00
2023-04-09T11:21:51.775Z,93102.00
2023-04-09T11:22:51.820Z,93104.00
2023-04-09T11:23:51.859Z,93102.00
2023-04-09T11:24:51.888Z,93102.00
2023-04-09T11:25:51.931Z,93104.00
2023-04-09T11:26:51.960Z,93100.00
2023-04-09T11:27:52.050Z,93100.00
2023-04-09T11:28:52.217Z,93100.00
2023-04-09T11:29:52.145Z,93098.00
2023-04-09T11:30:52.244Z,93100.00
2023-04-09T11:31:52.274Z,93104.00
2023-04-09T11:32:52.420Z,93102.00
2023-04-09T11:33:52.415Z,93098.00
2023-04-09T11:34:52.462Z,93102.00
2023-04-09T11:35:52.528Z,93102.00
2023-04-09T11:36:52.580Z,93102.00
2023-04-09T11:37:52.608Z,93096.00
2023-04-09T11:38:52.885Z,93094.00
2023-04-09T11:39:52.728Z,93092.00
2023-04-09T11:40:52.784Z,93094.00
2023-04-09T11:41:52.861Z,93094.00
2023-04-09T11:42:52.988Z,93090.00
2023-04-09T11:43:53.032Z,93092.00
2023-04-09T11:44:53.058Z,93090.00
2023-04-09T11:45:53.100Z,93092.00